sensor_id;sensor_type;location;lat;lon;timestamp;pressure;altitude;pressure_sealevel;temperature;humidity
55373;BME280;70018;47.838;16.490;2024-02-21T00:00:16;100262.06;;;10.20;63.10
55373;BME280;70018;47.838;16.490;2024-02-21T00:02:43;100258.03;;;10.17;63.44
55373;BME280;70018;47.838;16.490;2024-02-21T00:05:11;100263.09;;;10.15;63.22
55373;BME280;70018;47.838;16.490;2024-02-21T00:07:37;100261.50;;;10.14;63.11
55373;BME280;70018;47.838;16.490;2024-02-21T00:10:04;100262.63;;;10.13;62.92
55373;BME280;70018;47.838;16.490;2024-02-21T00:12:31;100271.34;;;10.15;63.15
55373;BME280;70018;47.838;16.490;2024-02-21T00:14:58;100265.84;;;10.15;63.02
55373;BME280;70018;47.838;16.490;2024-02-21T00:17:25;100264.25;;;10.14;63.16
55373;BME280;70018;47.838;16.490;2024-02-21T00:19:52;100267.31;;;10.13;62.75
55373;BME280;70018;47.838;16.490;2024-02-21T00:22:19;100256.31;;;10.13;63.27
55373;BME280;70018;47.838;16.490;2024-02-21T00:24:46;100259.88;;;10.13;63.22
55373;BME280;70018;47.838;16.490;2024-02-21T00:27:13;100256.47;;;10.16;63.33
55373;BME280;70018;47.838;16.490;2024-02-21T00:29:39;100260.47;;;10.19;63.29
55373;BME280;70018;47.838;16.490;2024-02-21T00:32:06;100251.88;;;10.20;63.61
55373;BME280;70018;47.838;16.490;2024-02-21T00:34:33;100258.84;;;10.18;63.64
55373;BME280;70018;47.838;16.490;2024-02-21T00:37:00;100254.84;;;10.15;63.84
55373;BME280;70018;47.838;16.490;2024-02-21T00:39:26;100262.34;;;10.06;63.75
55373;BME280;70018;47.838;16.490;2024-02-21T00:41:53;100255.09;;;10.02;62.96
55373;BME280;70018;47.838;16.490;2024-02-21T00:44:20;100252.47;;;10.05;63.31
55373;BME280;70018;47.838;16.490;2024-02-21T00:46:46;100237.56;;;10.06;63.27
55373;BME280;70018;47.838;16.490;2024-02-21T00:49:13;100236.72;;;10.14;63.44
55373;BME280;70018;47.838;16.490;2024-02-21T00:51:40;100239.47;;;10.14;63.86
55373;BME280;70018;47.838;16.490;2024-02-21T00:54:07;100250.00;;;10.12;63.73
55373;BME280;70018;47.838;16.490;2024-02-21T00:56:34;100241.25;;;10.10;63.59
55373;BME280;70018;47.838;16.490;2024-02-21T00:59:00;100233.50;;;10.12;63.31
55373;BME280;70018;47.838;16.490;2024-02-21T01:01:27;100244.28;;;10.17;63.46
55373;BME280;70018;47.838;16.490;2024-02-21T01:03:54;100229.59;;;10.13;63.60
55373;BME280;70018;47.838;16.490;2024-02-21T01:06:21;100235.09;;;10.13;63.97
55373;BME280;70018;47.838;16.490;2024-02-21T01:08:48;100231.88;;;10.11;63.61
55373;BME280;70018;47.838;16.490;2024-02-21T01:11:15;100227.00;;;10.17;63.89
55373;BME280;70018;47.838;16.490;2024-02-21T01:13:42;100223.44;;;10.16;64.33
55373;BME280;70018;47.838;16.490;2024-02-21T01:16:09;100224.09;;;10.13;63.97
55373;BME280;70018;47.838;16.490;2024-02-21T01:18:39;100220.84;;;10.11;63.70
55373;BME280;70018;47.838;16.490;2024-02-21T01:21:07;100227.84;;;10.09;63.79
55373;BME280;70018;47.838;16.490;2024-02-21T01:23:34;100227.84;;;10.09;64.02
55373;BME280;70018;47.838;16.490;2024-02-21T01:26:02;100226.34;;;10.11;63.73
55373;BME280;70018;47.838;16.490;2024-02-21T01:28:29;100228.13;;;10.16;63.72
55373;BME280;70018;47.838;16.490;2024-02-21T01:30:57;100216.09;;;10.20;64.10
55373;BME280;70018;47.838;16.490;2024-02-21T01:33:24;100216.91;;;10.21;64.44
55373;BME280;70018;47.838;16.490;2024-02-21T01:35:50;100211.84;;;10.23;64.75
55373;BME280;70018;47.838;16.490;2024-02-21T01:38:17;100210.13;;;10.18;65.36
55373;BME280;70018;47.838;16.490;2024-02-21T01:40:44;100209.31;;;10.18;65.15
55373;BME280;70018;47.838;16.490;2024-02-21T01:43:19;100205.53;;;10.22;64.48
55373;BME280;70018;47.838;16.490;2024-02-21T01:45:49;100199.13;;;10.18;65.23
55373;BME280;70018;47.838;16.490;2024-02-21T01:48:17;100195.22;;;10.19;65.09
55373;BME280;70018;47.838;16.490;2024-02-21T01:50:45;100199.03;;;10.27;64.80
55373;BME280;70018;47.838;16.490;2024-02-21T01:53:16;100210.38;;;10.25;65.23
55373;BME280;70018;47.838;16.490;2024-02-21T01:55:48;100189.72;;;10.19;65.16
55373;BME280;70018;47.838;16.490;2024-02-21T01:58:16;100193.16;;;10.16;64.71
55373;BME280;70018;47.838;16.490;2024-02-21T02:00:44;100191.53;;;10.15;64.51
55373;BME280;70018;47.838;16.490;2024-02-21T02:03:12;100190.41;;;10.16;64.55
55373;BME280;70018;47.838;16.490;2024-02-21T02:05:46;100179.84;;;10.18;64.66
55373;BME280;70018;47.838;16.490;2024-02-21T02:08:17;100185.69;;;10.17;64.57
55373;BME280;70018;47.838;16.490;2024-02-21T02:10:45;100186.03;;;10.15;64.54
55373;BME280;70018;47.838;16.490;2024-02-21T02:13:12;100196.72;;;10.17;64.53
55373;BME280;70018;47.838;16.490;2024-02-21T02:15:44;100179.84;;;10.18;64.49
55373;BME280;70018;47.838;16.490;2024-02-21T02:18:12;100191.31;;;10.20;64.75
55373;BME280;70018;47.838;16.490;2024-02-21T02:20:39;100173.88;;;10.16;64.39
55373;BME280;70018;47.838;16.490;2024-02-21T02:23:25;100178.72;;;10.19;64.23
55373;BME280;70018;47.838;16.490;2024-02-21T02:25:52;100193.81;;;10.13;63.64
55373;BME280;70018;47.838;16.490;2024-02-21T02:28:20;100183.47;;;10.10;63.44
55373;BME280;70018;47.838;16.490;2024-02-21T02:30:48;100179.56;;;10.11;63.53
55373;BME280;70018;47.838;16.490;2024-02-21T02:33:15;100184.44;;;10.14;64.08
55373;BME280;70018;47.838;16.490;2024-02-21T02:35:44;100171.44;;;10.15;63.73
55373;BME280;70018;47.838;16.490;2024-02-21T02:38:12;100169.44;;;10.03;63.71
55373;BME280;70018;47.838;16.490;2024-02-21T02:40:40;100153.75;;;10.04;63.28
55373;BME280;70018;47.838;16.490;2024-02-21T02:43:08;100166.03;;;10.06;63.60
55373;BME280;70018;47.838;16.490;2024-02-21T02:45:35;100162.69;;;10.01;63.55
55373;BME280;70018;47.838;16.490;2024-02-21T02:48:02;100159.78;;;9.97;63.06
55373;BME280;70018;47.838;16.490;2024-02-21T02:50:29;100166.91;;;9.98;63.38
55373;BME280;70018;47.838;16.490;2024-02-21T02:52:56;100168.03;;;9.97;62.96
55373;BME280;70018;47.838;16.490;2024-02-21T02:55:23;100157.38;;;9.96;63.59
55373;BME280;70018;47.838;16.490;2024-02-21T02:57:50;100165.03;;;9.90;63.16
55373;BME280;70018;47.838;16.490;2024-02-21T03:00:17;100168.16;;;9.89;62.72
55373;BME280;70018;47.838;16.490;2024-02-21T03:02:45;100154.03;;;9.90;62.88
55373;BME280;70018;47.838;16.490;2024-02-21T03:05:17;100152.44;;;9.89;63.11
55373;BME280;70018;47.838;16.490;2024-02-21T03:07:45;100151.97;;;9.87;63.06
55373;BME280;70018;47.838;16.490;2024-02-21T03:10:13;100150.38;;;9.86;62.84
55373;BME280;70018;47.838;16.490;2024-02-21T03:12:40;100150.16;;;9.91;62.54
55373;BME280;70018;47.838;16.490;2024-02-21T03:15:07;100143.25;;;9.85;62.99
55373;BME280;70018;47.838;16.490;2024-02-21T03:17:34;100135.34;;;9.84;62.54
55373;BME280;70018;47.838;16.490;2024-02-21T03:20:02;100143.47;;;9.80;62.70
55373;BME280;70018;47.838;16.490;2024-02-21T03:22:32;100143.47;;;9.80;62.52
55373;BME280;70018;47.838;16.490;2024-02-21T03:25:02;100130.88;;;9.79;62.76
55373;BME280;70018;47.838;16.490;2024-02-21T03:27:28;100127.75;;;9.81;62.88
55373;BME280;70018;47.838;16.490;2024-02-21T03:29:55;100125.59;;;9.86;63.28
55373;BME280;70018;47.838;16.490;2024-02-21T03:32:22;100133.88;;;9.86;63.65
55373;BME280;70018;47.838;16.490;2024-02-21T03:34:48;100139.81;;;9.88;64.37
55373;BME280;70018;47.838;16.490;2024-02-21T03:37:15;100140.19;;;9.87;64.98
55373;BME280;70018;47.838;16.490;2024-02-21T03:39:42;100149.78;;;9.81;64.99
55373;BME280;70018;47.838;16.490;2024-02-21T03:42:08;100149.31;;;9.79;64.93
55373;BME280;70018;47.838;16.490;2024-02-21T03:44:36;100139.78;;;9.76;65.20
55373;BME280;70018;47.838;16.490;2024-02-21T03:47:03;100145.50;;;9.71;65.05
55373;BME280;70018;47.838;16.490;2024-02-21T03:49:30;100148.47;;;9.66;65.52
55373;BME280;70018;47.838;16.490;2024-02-21T03:51:56;100140.88;;;9.63;65.19
55373;BME280;70018;47.838;16.490;2024-02-21T03:54:23;100147.53;;;9.62;65.13
55373;BME280;70018;47.838;16.490;2024-02-21T03:56:50;100149.28;;;9.66;64.93
55373;BME280;70018;47.838;16.490;2024-02-21T03:59:16;100138.78;;;9.60;65.38
55373;BME280;70018;47.838;16.490;2024-02-21T04:01:43;100155.59;;;9.67;64.82
55373;BME280;70018;47.838;16.490;2024-02-21T04:04:10;100153.28;;;9.69;65.49
55373;BME280;70018;47.838;16.490;2024-02-21T04:06:46;100139.84;;;9.67;65.89
55373;BME280;70018;47.838;16.490;2024-02-21T04:09:12;100156.25;;;9.64;65.35
55373;BME280;70018;47.838;16.490;2024-02-21T04:11:39;100156.25;;;9.64;65.96
55373;BME280;70018;47.838;16.490;2024-02-21T04:14:06;100141.22;;;9.61;65.69
55373;BME280;70018;47.838;16.490;2024-02-21T04:16:34;100150.00;;;9.55;65.35
55373;BME280;70018;47.838;16.490;2024-02-21T04:19:01;100158.03;;;9.60;65.60
55373;BME280;70018;47.838;16.490;2024-02-21T04:21:28;100159.22;;;9.59;65.63
55373;BME280;70018;47.838;16.490;2024-02-21T04:23:55;100162.81;;;9.51;65.66
55373;BME280;70018;47.838;16.490;2024-02-21T04:26:22;100162.09;;;9.42;65.39
55373;BME280;70018;47.838;16.490;2024-02-21T04:28:49;100167.41;;;9.47;65.37
55373;BME280;70018;47.838;16.490;2024-02-21T04:31:15;100167.50;;;9.50;65.22
55373;BME280;70018;47.838;16.490;2024-02-21T04:33:42;100165.63;;;9.42;65.50
55373;BME280;70018;47.838;16.490;2024-02-21T04:36:09;100164.34;;;9.40;66.03
55373;BME280;70018;47.838;16.490;2024-02-21T04:38:36;100162.09;;;9.42;65.89
55373;BME280;70018;47.838;16.490;2024-02-21T04:41:02;100152.22;;;9.41;66.50
55373;BME280;70018;47.838;16.490;2024-02-21T04:43:29;100157.72;;;9.41;66.54
55373;BME280;70018;47.838;16.490;2024-02-21T04:45:56;100159.66;;;9.40;66.63
55373;BME280;70018;47.838;16.490;2024-02-21T04:48:23;100152.91;;;9.38;67.12
55373;BME280;70018;47.838;16.490;2024-02-21T04:50:49;100152.91;;;9.38;67.26
55373;BME280;70018;47.838;16.490;2024-02-21T04:53:16;100157.72;;;9.41;67.17
55373;BME280;70018;47.838;16.490;2024-02-21T04:55:43;100160.69;;;9.36;67.36
55373;BME280;70018;47.838;16.490;2024-02-21T04:58:09;100148.88;;;9.35;67.25
55373;BME280;70018;47.838;16.490;2024-02-21T05:00:36;100156.13;;;9.40;67.60
55373;BME280;70018;47.838;16.490;2024-02-21T05:03:03;100160.28;;;9.46;67.99
55373;BME280;70018;47.838;16.490;2024-02-21T05:05:30;100149.06;;;9.51;67.77
55373;BME280;70018;47.838;16.490;2024-02-21T05:07:57;100155.19;;;9.56;68.50
55373;BME280;70018;47.838;16.490;2024-02-21T05:10:24;100158.19;;;9.63;68.76
55373;BME280;70018;47.838;16.490;2024-02-21T05:12:50;100159.59;;;9.69;68.96
55373;BME280;70018;47.838;16.490;2024-02-21T05:15:17;100152.28;;;9.73;69.44
55373;BME280;70018;47.838;16.490;2024-02-21T05:17:44;100149.97;;;9.76;69.67
55373;BME280;70018;47.838;16.490;2024-02-21T05:20:11;100150.44;;;9.78;69.62
55373;BME280;70018;47.838;16.490;2024-02-21T05:22:38;100148.19;;;9.80;69.87
55373;BME280;70018;47.838;16.490;2024-02-21T05:25:05;100148.19;;;9.80;70.53
55373;BME280;70018;47.838;16.490;2024-02-21T05:27:32;100148.19;;;9.80;71.43
55373;BME280;70018;47.838;16.490;2024-02-21T05:29:59;100146.56;;;9.79;71.21
55373;BME280;70018;47.838;16.490;2024-02-21T05:32:26;100148.50;;;9.78;71.55
55373;BME280;70018;47.838;16.490;2024-02-21T05:34:53;100146.09;;;9.77;71.87
55373;BME280;70018;47.838;16.490;2024-02-21T05:37:20;100151.91;;;9.75;72.19
55373;BME280;70018;47.838;16.490;2024-02-21T05:39:46;100151.00;;;9.71;72.44
55373;BME280;70018;47.838;16.490;2024-02-21T05:42:13;100146.97;;;9.68;72.73
55373;BME280;70018;47.838;16.490;2024-02-21T05:44:40;100146.16;;;9.68;72.69
55373;BME280;70018;47.838;16.490;2024-02-21T05:47:06;100137.81;;;9.64;73.28
55373;BME280;70018;47.838;16.490;2024-02-21T05:49:36;100138.94;;;9.63;73.25
55373;BME280;70018;47.838;16.490;2024-02-21T05:52:04;100134.25;;;9.64;73.09
55373;BME280;70018;47.838;16.490;2024-02-21T05:54:32;100136.03;;;9.60;73.39
55373;BME280;70018;47.838;16.490;2024-02-21T05:56:59;100137.63;;;9.49;73.49
55373;BME280;70018;47.838;16.490;2024-02-21T05:59:26;100142.72;;;9.38;73.07
55373;BME280;70018;47.838;16.490;2024-02-21T06:01:57;100133.84;;;9.33;72.62
55373;BME280;70018;47.838;16.490;2024-02-21T06:04:24;100137.78;;;9.32;72.88
55373;BME280;70018;47.838;16.490;2024-02-21T06:06:51;100135.34;;;9.30;72.80
55373;BME280;70018;47.838;16.490;2024-02-21T06:09:18;100140.06;;;9.30;72.54
55373;BME280;70018;47.838;16.490;2024-02-21T06:11:45;100129.84;;;9.30;72.09
55373;BME280;70018;47.838;16.490;2024-02-21T06:14:13;100126.78;;;9.32;71.75
55373;BME280;70018;47.838;16.490;2024-02-21T06:16:39;100132.72;;;9.34;71.96
55373;BME280;70018;47.838;16.490;2024-02-21T06:19:06;100128.50;;;9.36;71.84
55373;BME280;70018;47.838;16.490;2024-02-21T06:21:36;100121.53;;;9.39;71.71
55373;BME280;70018;47.838;16.490;2024-02-21T06:24:03;100122.81;;;9.41;71.85
55373;BME280;70018;47.838;16.490;2024-02-21T06:26:30;100128.63;;;9.40;71.59
55373;BME280;70018;47.838;16.490;2024-02-21T06:28:57;100123.13;;;9.40;71.98
55373;BME280;70018;47.838;16.490;2024-02-21T06:31:27;100122.66;;;9.38;72.05
55373;BME280;70018;47.838;16.490;2024-02-21T06:33:54;100116.03;;;9.39;71.84
55373;BME280;70018;47.838;16.490;2024-02-21T06:36:20;100128.63;;;9.40;71.55
55373;BME280;70018;47.838;16.490;2024-02-21T06:38:47;100129.13;;;9.42;71.94
55373;BME280;70018;47.838;16.490;2024-02-21T06:41:17;100119.72;;;9.43;71.39
55373;BME280;70018;47.838;16.490;2024-02-21T06:43:46;100122.13;;;9.44;71.52
55373;BME280;70018;47.838;16.490;2024-02-21T06:46:26;100123.41;;;9.47;72.18
55373;BME280;70018;47.838;16.490;2024-02-21T06:48:53;100130.97;;;9.50;71.66
55373;BME280;70018;47.838;16.490;2024-02-21T06:51:20;100121.59;;;9.51;71.36
55373;BME280;70018;47.838;16.490;2024-02-21T06:53:47;100129.16;;;9.54;71.12
55373;BME280;70018;47.838;16.490;2024-02-21T06:56:14;100128.50;;;9.57;71.26
55373;BME280;70018;47.838;16.490;2024-02-21T06:58:40;100123.56;;;9.62;71.62
55373;BME280;70018;47.838;16.490;2024-02-21T07:01:08;100124.53;;;9.66;71.45
55373;BME280;70018;47.838;16.490;2024-02-21T07:03:35;100129.00;;;9.71;71.11
55373;BME280;70018;47.838;16.490;2024-02-21T07:06:02;100129.13;;;9.75;71.24
55373;BME280;70018;47.838;16.490;2024-02-21T07:08:29;100129.72;;;9.80;70.95
55373;BME280;70018;47.838;16.490;2024-02-21T07:10:56;100129.63;;;9.89;71.09
55373;BME280;70018;47.838;16.490;2024-02-21T07:13:23;100127.94;;;9.96;71.02
55373;BME280;70018;47.838;16.490;2024-02-21T07:15:49;100124.59;;;10.03;70.60
55373;BME280;70018;47.838;16.490;2024-02-21T07:18:16;100120.16;;;10.10;70.94
55373;BME280;70018;47.838;16.490;2024-02-21T07:20:44;100124.34;;;10.16;70.99
55373;BME280;70018;47.838;16.490;2024-02-21T07:23:11;100119.75;;;10.20;70.49
55373;BME280;70018;47.838;16.490;2024-02-21T07:25:38;100128.59;;;10.26;70.24
55373;BME280;70018;47.838;16.490;2024-02-21T07:28:06;100119.66;;;10.29;70.38
55373;BME280;70018;47.838;16.490;2024-02-21T07:30:33;100135.94;;;10.34;70.73
55373;BME280;70018;47.838;16.490;2024-02-21T07:33:00;100124.22;;;10.37;70.66
55373;BME280;70018;47.838;16.490;2024-02-21T07:35:27;100125.16;;;10.41;70.33
55373;BME280;70018;47.838;16.490;2024-02-21T07:37:53;100123.78;;;10.47;71.08
55373;BME280;70018;47.838;16.490;2024-02-21T07:40:20;100123.22;;;10.54;70.63
55373;BME280;70018;47.838;16.490;2024-02-21T07:42:47;100117.50;;;10.59;70.78
55373;BME280;70018;47.838;16.490;2024-02-21T07:45:17;100114.38;;;10.60;70.82
55373;BME280;70018;47.838;16.490;2024-02-21T07:47:45;100109.81;;;10.64;70.74
55373;BME280;70018;47.838;16.490;2024-02-21T07:50:12;100106.00;;;10.69;71.71
55373;BME280;70018;47.838;16.490;2024-02-21T07:52:39;100110.03;;;10.71;70.84
55373;BME280;70018;47.838;16.490;2024-02-21T07:55:06;100105.31;;;10.72;71.20
55373;BME280;70018;47.838;16.490;2024-02-21T07:57:33;100100.94;;;10.71;71.87
55373;BME280;70018;47.838;16.490;2024-02-21T07:59:59;100096.56;;;10.70;71.89
55373;BME280;70018;47.838;16.490;2024-02-21T08:02:26;100096.13;;;10.68;72.62
55373;BME280;70018;47.838;16.490;2024-02-21T08:04:53;100097.28;;;10.67;72.64
55373;BME280;70018;47.838;16.490;2024-02-21T08:07:20;100099.56;;;10.65;72.39
55373;BME280;70018;47.838;16.490;2024-02-21T08:09:46;100095.22;;;10.64;72.78
55373;BME280;70018;47.838;16.490;2024-02-21T08:12:13;100099.13;;;10.63;73.29
55373;BME280;70018;47.838;16.490;2024-02-21T08:14:40;100095.09;;;10.60;73.68
55373;BME280;70018;47.838;16.490;2024-02-21T08:17:06;100096.25;;;10.59;73.44
55373;BME280;70018;47.838;16.490;2024-02-21T08:19:33;100090.84;;;10.63;73.99
55373;BME280;70018;47.838;16.490;2024-02-21T08:22:00;100085.56;;;10.70;73.85
55373;BME280;70018;47.838;16.490;2024-02-21T08:24:27;100084.28;;;10.79;74.09
55373;BME280;70018;47.838;16.490;2024-02-21T08:26:53;100077.50;;;10.89;73.34
55373;BME280;70018;47.838;16.490;2024-02-21T08:29:20;100077.13;;;11.02;72.80
55373;BME280;70018;47.838;16.490;2024-02-21T08:31:47;100074.88;;;11.20;72.41
55373;BME280;70018;47.838;16.490;2024-02-21T08:34:13;100075.03;;;11.39;71.92
55373;BME280;70018;47.838;16.490;2024-02-21T08:36:40;100063.25;;;11.54;71.79
55373;BME280;70018;47.838;16.490;2024-02-21T08:39:07;100065.88;;;11.63;71.88
55373;BME280;70018;47.838;16.490;2024-02-21T08:41:36;100072.28;;;11.67;71.46
55373;BME280;70018;47.838;16.490;2024-02-21T08:44:25;100074.72;;;11.69;72.33
55373;BME280;70018;47.838;16.490;2024-02-21T08:46:55;100060.56;;;11.70;71.97
55373;BME280;70018;47.838;16.490;2024-02-21T08:49:22;100066.97;;;11.74;72.29
55373;BME280;70018;47.838;16.490;2024-02-21T08:51:51;100068.88;;;11.86;72.02
55373;BME280;70018;47.838;16.490;2024-02-21T08:54:17;100067.66;;;11.99;71.73
55373;BME280;70018;47.838;16.490;2024-02-21T08:56:44;100060.44;;;12.10;71.73
55373;BME280;70018;47.838;16.490;2024-02-21T08:59:11;100063.09;;;12.22;71.87
55373;BME280;70018;47.838;16.490;2024-02-21T09:01:38;100063.00;;;12.34;72.28
55373;BME280;70018;47.838;16.490;2024-02-21T09:04:05;100056.47;;;12.42;71.99
55373;BME280;70018;47.838;16.490;2024-02-21T09:06:32;100060.16;;;12.46;71.68
55373;BME280;70018;47.838;16.490;2024-02-21T09:09:00;100053.88;;;12.49;71.93
55373;BME280;70018;47.838;16.490;2024-02-21T09:11:27;100051.59;;;12.51;71.88
55373;BME280;70018;47.838;16.490;2024-02-21T09:13:54;100045.31;;;12.54;71.91
55373;BME280;70018;47.838;16.490;2024-02-21T09:16:21;100050.94;;;12.58;72.09
55373;BME280;70018;47.838;16.490;2024-02-21T09:18:50;100047.03;;;12.59;72.61
55373;BME280;70018;47.838;16.490;2024-02-21T09:21:17;100042.28;;;12.59;72.26
55373;BME280;70018;47.838;16.490;2024-02-21T09:23:45;100044.00;;;12.64;72.72
55373;BME280;70018;47.838;16.490;2024-02-21T09:26:12;100039.50;;;12.75;71.93
55373;BME280;70018;47.838;16.490;2024-02-21T09:28:43;100038.84;;;12.81;72.46
55373;BME280;70018;47.838;16.490;2024-02-21T09:31:10;100037.50;;;12.91;72.58
55373;BME280;70018;47.838;16.490;2024-02-21T09:33:37;100040.84;;;13.00;71.97
55373;BME280;70018;47.838;16.490;2024-02-21T09:36:04;100039.88;;;13.08;71.91
55373;BME280;70018;47.838;16.490;2024-02-21T09:38:34;100040.00;;;13.15;72.15
55373;BME280;70018;47.838;16.490;2024-02-21T09:41:26;100030.59;;;13.20;71.85
55373;BME280;70018;47.838;16.490;2024-02-21T09:43:56;100035.03;;;13.24;71.77
55373;BME280;70018;47.838;16.490;2024-02-21T09:47:12;100035.25;;;13.35;71.91
55373;BME280;70018;47.838;16.490;2024-02-21T09:49:44;100039.50;;;13.48;71.37
55373;BME280;70018;47.838;16.490;2024-02-21T09:52:12;100035.31;;;13.57;71.48
55373;BME280;70018;47.838;16.490;2024-02-21T09:54:41;100031.66;;;13.73;71.33
55373;BME280;70018;47.838;16.490;2024-02-21T09:57:12;100035.47;;;13.87;70.94
55373;BME280;70018;47.838;16.490;2024-02-21T09:59:39;100030.16;;;14.01;70.54
55373;BME280;70018;47.838;16.490;2024-02-21T10:02:08;100028.13;;;14.21;69.80
55373;BME280;70018;47.838;16.490;2024-02-21T10:04:35;100011.81;;;14.39;69.50
55373;BME280;70018;47.838;16.490;2024-02-21T10:07:03;100007.66;;;14.52;69.11
55373;BME280;70018;47.838;16.490;2024-02-21T10:09:30;100006.59;;;14.60;68.24
55373;BME280;70018;47.838;16.490;2024-02-21T10:12:15;100005.88;;;14.63;66.95
55373;BME280;70018;47.838;16.490;2024-02-21T10:14:45;100003.66;;;14.75;66.50
55373;BME280;70018;47.838;16.490;2024-02-21T10:17:16;99997.81;;;14.84;65.71
55373;BME280;70018;47.838;16.490;2024-02-21T10:19:45;100000.34;;;14.96;65.52
55373;BME280;70018;47.838;16.490;2024-02-21T10:22:15;100001.63;;;15.02;65.26
55373;BME280;70018;47.838;16.490;2024-02-21T10:24:42;99998.56;;;15.11;65.17
55373;BME280;70018;47.838;16.490;2024-02-21T10:27:09;99994.69;;;15.19;64.82
55373;BME280;70018;47.838;16.490;2024-02-21T10:29:40;99991.63;;;15.27;64.61
55373;BME280;70018;47.838;16.490;2024-02-21T10:32:12;99979.81;;;15.34;65.10
55373;BME280;70018;47.838;16.490;2024-02-21T10:34:41;99980.69;;;15.41;65.08
55373;BME280;70018;47.838;16.490;2024-02-21T10:37:09;99976.00;;;15.45;65.17
55373;BME280;70018;47.838;16.490;2024-02-21T10:39:38;99975.88;;;15.38;65.28
55373;BME280;70018;47.838;16.490;2024-02-21T10:42:05;99970.25;;;15.31;63.92
55373;BME280;70018;47.838;16.490;2024-02-21T10:44:34;99964.75;;;15.35;63.31
55373;BME280;70018;47.838;16.490;2024-02-21T10:47:08;99969.66;;;15.45;62.99
55373;BME280;70018;47.838;16.490;2024-02-21T10:49:38;99967.31;;;15.51;63.27
55373;BME280;70018;47.838;16.490;2024-02-21T10:52:19;99955.91;;;15.59;63.43
55373;BME280;70018;47.838;16.490;2024-02-21T10:54:56;99951.28;;;15.74;63.62
55373;BME280;70018;47.838;16.490;2024-02-21T10:57:25;99944.25;;;15.87;63.35
55373;BME280;70018;47.838;16.490;2024-02-21T10:59:55;99932.84;;;15.99;63.47
55373;BME280;70018;47.838;16.490;2024-02-21T11:02:26;99927.38;;;16.09;62.87
55373;BME280;70018;47.838;16.490;2024-02-21T11:04:55;99930.59;;;16.19;62.58
55373;BME280;70018;47.838;16.490;2024-02-21T11:07:23;99926.66;;;16.23;62.87
55373;BME280;70018;47.838;16.490;2024-02-21T11:09:51;99929.91;;;16.32;62.39
55373;BME280;70018;47.838;16.490;2024-02-21T11:12:24;99932.72;;;16.39;62.57
55373;BME280;70018;47.838;16.490;2024-02-21T11:14:52;99927.53;;;16.34;62.50
55373;BME280;70018;47.838;16.490;2024-02-21T11:17:20;99922.72;;;16.24;62.35
55373;BME280;70018;47.838;16.490;2024-02-21T11:19:53;99916.72;;;16.15;61.82
55373;BME280;70018;47.838;16.490;2024-02-21T11:22:20;99911.44;;;16.03;62.43
55373;BME280;70018;47.838;16.490;2024-02-21T11:24:49;99911.69;;;15.84;61.33
55373;BME280;70018;47.838;16.490;2024-02-21T11:27:19;99912.81;;;15.76;60.74
55373;BME280;70018;47.838;16.490;2024-02-21T11:29:56;99902.88;;;15.71;60.90
55373;BME280;70018;47.838;16.490;2024-02-21T11:32:25;99895.66;;;15.63;60.59
55373;BME280;70018;47.838;16.490;2024-02-21T11:34:58;99897.22;;;15.61;59.81
55373;BME280;70018;47.838;16.490;2024-02-21T11:37:32;99888.00;;;15.50;59.53
55373;BME280;70018;47.838;16.490;2024-02-21T11:40:00;99887.19;;;15.45;58.91
55373;BME280;70018;47.838;16.490;2024-02-21T11:42:28;99890.38;;;15.51;58.75
55373;BME280;70018;47.838;16.490;2024-02-21T11:45:00;99884.13;;;15.58;59.45
55373;BME280;70018;47.838;16.490;2024-02-21T11:47:28;99884.19;;;15.65;59.11
55373;BME280;70018;47.838;16.490;2024-02-21T11:49:55;99871.50;;;15.71;59.87
55373;BME280;70018;47.838;16.490;2024-02-21T11:52:23;99872.75;;;15.77;59.84
55373;BME280;70018;47.838;16.490;2024-02-21T11:54:53;99870.81;;;15.81;60.07
55373;BME280;70018;47.838;16.490;2024-02-21T11:57:21;99865.69;;;15.83;60.36
55373;BME280;70018;47.838;16.490;2024-02-21T11:59:48;99855.38;;;15.87;60.74
55373;BME280;70018;47.838;16.490;2024-02-21T12:02:19;99854.63;;;15.93;60.93
55373;BME280;70018;47.838;16.490;2024-02-21T12:04:46;99853.88;;;16.00;61.02
55373;BME280;70018;47.838;16.490;2024-02-21T12:07:14;99854.69;;;16.04;60.46
55373;BME280;70018;47.838;16.490;2024-02-21T12:09:41;99845.59;;;16.07;60.86
55373;BME280;70018;47.838;16.490;2024-02-21T12:12:08;99837.25;;;16.10;60.72
55373;BME280;70018;47.838;16.490;2024-02-21T12:14:35;99838.91;;;16.15;61.33
55373;BME280;70018;47.838;16.490;2024-02-21T12:17:02;99827.38;;;16.17;61.23
55373;BME280;70018;47.838;16.490;2024-02-21T12:19:33;99838.53;;;16.20;61.06
55373;BME280;70018;47.838;16.490;2024-02-21T12:22:01;99833.78;;;16.24;61.02
55373;BME280;70018;47.838;16.490;2024-02-21T12:24:28;99826.63;;;16.27;61.27
55373;BME280;70018;47.838;16.490;2024-02-21T12:26:56;99827.84;;;16.29;61.52
55373;BME280;70018;47.838;16.490;2024-02-21T12:29:24;99819.09;;;16.31;61.56
55373;BME280;70018;47.838;16.490;2024-02-21T12:31:55;99817.53;;;16.33;61.59
55373;BME280;70018;47.838;16.490;2024-02-21T12:34:23;99820.34;;;16.37;61.95
55373;BME280;70018;47.838;16.490;2024-02-21T12:37:10;99808.81;;;16.38;62.31
55373;BME280;70018;47.838;16.490;2024-02-21T12:39:39;99812.41;;;16.39;62.27
55373;BME280;70018;47.838;16.490;2024-02-21T12:42:06;99808.81;;;16.38;61.50
55373;BME280;70018;47.838;16.490;2024-02-21T12:44:33;99814.00;;;16.40;60.87
55373;BME280;70018;47.838;16.490;2024-02-21T12:47:00;99806.88;;;16.42;61.43
55373;BME280;70018;47.838;16.490;2024-02-21T12:49:27;99798.13;;;16.44;61.28